sensor_id;sensor_type;location;lat;lon;timestamp;P1;durP1;ratioP1;P2;durP2;ratioP2
3995;SDS011;2012;49.794;9.722;2022-11-20T00:01:26;42.20;;;27.10;;
3995;SDS011;2012;49.794;9.722;2022-11-20T00:03:53;41.63;;;26.53;;
3995;SDS011;2012;49.794;9.722;2022-11-20T00:06:22;41.63;;;25.63;;
3995;SDS011;2012;49.794;9.722;2022-11-20T00:08:49;43.40;;;26.90;;
3995;SDS011;2012;49.794;9.722;2022-11-20T00:11:18;43.37;;;27.13;;
3995;SDS011;2012;49.794;9.722;2022-11-20T00:13:46;41.40;;;25.27;;
3995;SDS011;2012;49.794;9.722;2022-11-20T00:16:16;38.20;;;25.83;;
3995;SDS011;2012;49.794;9.722;2022-11-20T00:18:44;41.50;;;25.60;;
3995;SDS011;2012;49.794;9.722;2022-11-20T00:23:40;45.60;;;27.77;;
3995;SDS011;2012;49.794;9.722;2022-11-20T00:26:09;40.83;;;25.77;;
3995;SDS011;2012;49.794;9.722;2022-11-20T00:28:37;42.10;;;28.10;;
3995;SDS011;2012;49.794;9.722;2022-11-20T00:31:05;43.50;;;27.10;;
3995;SDS011;2012;49.794;9.722;2022-11-20T00:33:39;44.17;;;25.70;;
3995;SDS011;2012;49.794;9.722;2022-11-20T00:36:08;37.90;;;25.97;;
3995;SDS011;2012;49.794;9.722;2022-11-20T00:38:39;41.97;;;26.33;;
3995;SDS011;2012;49.794;9.722;2022-11-20T00:41:07;42.37;;;25.63;;
3995;SDS011;2012;49.794;9.722;2022-11-20T00:43:35;44.87;;;28.07;;
3995;SDS011;2012;49.794;9.722;2022-11-20T00:46:04;41.80;;;25.23;;
3995;SDS011;2012;49.794;9.722;2022-11-20T00:48:36;41.40;;;25.37;;
3995;SDS011;2012;49.794;9.722;2022-11-20T00:51:03;42.90;;;25.13;;
3995;SDS011;2012;49.794;9.722;2022-11-20T00:53:30;40.20;;;25.33;;
3995;SDS011;2012;49.794;9.722;2022-11-20T00:55:58;42.27;;;28.27;;
3995;SDS011;2012;49.794;9.722;2022-11-20T00:58:31;42.13;;;27.23;;
3995;SDS011;2012;49.794;9.722;2022-11-20T01:01:06;46.03;;;26.33;;
3995;SDS011;2012;49.794;9.722;2022-11-20T01:03:35;46.83;;;27.23;;
3995;SDS011;2012;49.794;9.722;2022-11-20T01:06:05;44.50;;;27.97;;
3995;SDS011;2012;49.794;9.722;2022-11-20T01:08:34;44.87;;;29.17;;
3995;SDS011;2012;49.794;9.722;2022-11-20T01:11:11;48.83;;;29.20;;
3995;SDS011;2012;49.794;9.722;2022-11-20T01:13:40;40.90;;;26.93;;
3995;SDS011;2012;49.794;9.722;2022-11-20T01:18:37;43.50;;;27.17;;
3995;SDS011;2012;49.794;9.722;2022-11-20T01:21:06;44.37;;;26.87;;
3995;SDS011;2012;49.794;9.722;2022-11-20T01:23:35;45.03;;;27.30;;
3995;SDS011;2012;49.794;9.722;2022-11-20T01:26:05;48.40;;;28.37;;
3995;SDS011;2012;49.794;9.722;2022-11-20T01:28:37;44.20;;;28.40;;
3995;SDS011;2012;49.794;9.722;2022-11-20T01:31:11;47.00;;;26.73;;
3995;SDS011;2012;49.794;9.722;2022-11-20T01:33:47;41.00;;;27.17;;
3995;SDS011;2012;49.794;9.722;2022-11-20T01:36:15;43.73;;;28.33;;
3995;SDS011;2012;49.794;9.722;2022-11-20T01:38:43;41.07;;;26.53;;
3995;SDS011;2012;49.794;9.722;2022-11-20T01:41:10;40.03;;;25.90;;
3995;SDS011;2012;49.794;9.722;2022-11-20T01:43:58;45.63;;;27.23;;
3995;SDS011;2012;49.794;9.722;2022-11-20T01:46:25;41.17;;;25.63;;
3995;SDS011;2012;49.794;9.722;2022-11-20T01:54:12;40.57;;;25.23;;
3995;SDS011;2012;49.794;9.722;2022-11-20T01:56:45;43.80;;;27.57;;
3995;SDS011;2012;49.794;9.722;2022-11-20T01:59:14;46.03;;;29.07;;
3995;SDS011;2012;49.794;9.722;2022-11-20T02:01:44;42.60;;;27.37;;
3995;SDS011;2012;49.794;9.722;2022-11-20T02:04:12;45.33;;;27.90;;
3995;SDS011;2012;49.794;9.722;2022-11-20T02:06:50;45.67;;;29.47;;
3995;SDS011;2012;49.794;9.722;2022-11-20T02:09:21;47.57;;;27.63;;
3995;SDS011;2012;49.794;9.722;2022-11-20T02:11:49;42.67;;;26.87;;
3995;SDS011;2012;49.794;9.722;2022-11-20T02:14:15;41.97;;;26.87;;
3995;SDS011;2012;49.794;9.722;2022-11-20T02:16:46;45.87;;;28.97;;
3995;SDS011;2012;49.794;9.722;2022-11-20T02:19:30;42.43;;;27.00;;
3995;SDS011;2012;49.794;9.722;2022-11-20T02:24:40;41.90;;;25.17;;
3995;SDS011;2012;49.794;9.722;2022-11-20T02:27:11;39.13;;;25.00;;
3995;SDS011;2012;49.794;9.722;2022-11-20T02:29:41;36.80;;;24.53;;
3995;SDS011;2012;49.794;9.722;2022-11-20T02:32:22;44.23;;;27.50;;
3995;SDS011;2012;49.794;9.722;2022-11-20T02:34:51;42.60;;;25.50;;
3995;SDS011;2012;49.794;9.722;2022-11-20T02:37:18;45.20;;;27.77;;
3995;SDS011;2012;49.794;9.722;2022-11-20T02:39:47;47.00;;;27.57;;
3995;SDS011;2012;49.794;9.722;2022-11-20T02:42:16;39.87;;;27.70;;
3995;SDS011;2012;49.794;9.722;2022-11-20T02:44:43;44.90;;;26.73;;
3995;SDS011;2012;49.794;9.722;2022-11-20T02:47:10;42.80;;;28.50;;
3995;SDS011;2012;49.794;9.722;2022-11-20T02:49:37;44.97;;;28.43;;
3995;SDS011;2012;49.794;9.722;2022-11-20T02:52:03;40.70;;;26.60;;
3995;SDS011;2012;49.794;9.722;2022-11-20T02:54:30;40.43;;;26.00;;
3995;SDS011;2012;49.794;9.722;2022-11-20T02:56:57;45.43;;;27.60;;
3995;SDS011;2012;49.794;9.722;2022-11-20T02:59:24;42.03;;;26.00;;
3995;SDS011;2012;49.794;9.722;2022-11-20T03:01:50;43.93;;;26.67;;
3995;SDS011;2012;49.794;9.722;2022-11-20T03:04:17;43.20;;;26.63;;
3995;SDS011;2012;49.794;9.722;2022-11-20T03:06:44;44.70;;;27.53;;
3995;SDS011;2012;49.794;9.722;2022-11-20T03:09:11;39.43;;;25.20;;
3995;SDS011;2012;49.794;9.722;2022-11-20T03:11:38;44.57;;;27.40;;
3995;SDS011;2012;49.794;9.722;2022-11-20T03:14:04;47.83;;;29.20;;
3995;SDS011;2012;49.794;9.722;2022-11-20T03:16:31;49.57;;;29.20;;
3995;SDS011;2012;49.794;9.722;2022-11-20T03:18:59;46.40;;;29.43;;
3995;SDS011;2012;49.794;9.722;2022-11-20T03:21:26;50.40;;;30.30;;
3995;SDS011;2012;49.794;9.722;2022-11-20T03:23:53;49.13;;;26.77;;
3995;SDS011;2012;49.794;9.722;2022-11-20T03:26:22;40.07;;;26.57;;
3995;SDS011;2012;49.794;9.722;2022-11-20T03:28:51;46.63;;;28.00;;
3995;SDS011;2012;49.794;9.722;2022-11-20T03:31:21;46.83;;;29.23;;
3995;SDS011;2012;49.794;9.722;2022-11-20T03:33:50;44.13;;;25.77;;
3995;SDS011;2012;49.794;9.722;2022-11-20T03:36:18;47.57;;;29.30;;
3995;SDS011;2012;49.794;9.722;2022-11-20T03:38:46;45.00;;;28.47;;
3995;SDS011;2012;49.794;9.722;2022-11-20T03:41:16;46.30;;;28.10;;
3995;SDS011;2012;49.794;9.722;2022-11-20T03:43:52;46.80;;;28.60;;
3995;SDS011;2012;49.794;9.722;2022-11-20T03:46:23;46.03;;;27.67;;
3995;SDS011;2012;49.794;9.722;2022-11-20T03:48:50;43.67;;;25.53;;
3995;SDS011;2012;49.794;9.722;2022-11-20T03:51:21;40.37;;;26.50;;
3995;SDS011;2012;49.794;9.722;2022-11-20T03:53:50;42.30;;;26.87;;
3995;SDS011;2012;49.794;9.722;2022-11-20T03:56:20;43.40;;;27.07;;
3995;SDS011;2012;49.794;9.722;2022-11-20T03:58:51;44.53;;;27.90;;
3995;SDS011;2012;49.794;9.722;2022-11-20T04:01:22;42.53;;;26.70;;
3995;SDS011;2012;49.794;9.722;2022-11-20T04:03:54;41.60;;;26.87;;
3995;SDS011;2012;49.794;9.722;2022-11-20T04:06:25;42.43;;;26.33;;
3995;SDS011;2012;49.794;9.722;2022-11-20T04:08:56;39.93;;;25.80;;
3995;SDS011;2012;49.794;9.722;2022-11-20T04:11:25;39.40;;;25.30;;
3995;SDS011;2012;49.794;9.722;2022-11-20T04:13:53;38.33;;;25.10;;
3995;SDS011;2012;49.794;9.722;2022-11-20T04:16:23;39.40;;;25.30;;
3995;SDS011;2012;49.794;9.722;2022-11-20T04:18:51;37.40;;;24.90;;
3995;SDS011;2012;49.794;9.722;2022-11-20T04:21:25;42.10;;;24.90;;
3995;SDS011;2012;49.794;9.722;2022-11-20T04:23:53;43.10;;;26.00;;
3995;SDS011;2012;49.794;9.722;2022-11-20T04:26:21;43.10;;;27.10;;
3995;SDS011;2012;49.794;9.722;2022-11-20T04:28:49;37.70;;;24.37;;
3995;SDS011;2012;49.794;9.722;2022-11-20T04:31:17;38.67;;;24.80;;
3995;SDS011;2012;49.794;9.722;2022-11-20T04:33:46;39.17;;;24.90;;
3995;SDS011;2012;49.794;9.722;2022-11-20T04:36:14;39.70;;;23.97;;
3995;SDS011;2012;49.794;9.722;2022-11-20T04:38:42;40.47;;;24.20;;
3995;SDS011;2012;49.794;9.722;2022-11-20T04:41:12;35.67;;;22.77;;
3995;SDS011;2012;49.794;9.722;2022-11-20T04:43:45;33.97;;;21.93;;
3995;SDS011;2012;49.794;9.722;2022-11-20T04:46:14;36.37;;;23.03;;
3995;SDS011;2012;49.794;9.722;2022-11-20T04:48:42;32.37;;;22.03;;
3995;SDS011;2012;49.794;9.722;2022-11-20T04:51:09;36.80;;;24.17;;
3995;SDS011;2012;49.794;9.722;2022-11-20T04:53:36;33.70;;;23.60;;
3995;SDS011;2012;49.794;9.722;2022-11-20T04:56:03;34.60;;;22.43;;
3995;SDS011;2012;49.794;9.722;2022-11-20T04:58:35;32.40;;;21.80;;
3995;SDS011;2012;49.794;9.722;2022-11-20T05:01:03;33.30;;;22.17;;
3995;SDS011;2012;49.794;9.722;2022-11-20T05:03:38;33.43;;;21.37;;
3995;SDS011;2012;49.794;9.722;2022-11-20T05:06:08;31.77;;;21.70;;
3995;SDS011;2012;49.794;9.722;2022-11-20T05:08:36;34.33;;;22.37;;
3995;SDS011;2012;49.794;9.722;2022-11-20T05:11:06;33.10;;;21.67;;
3995;SDS011;2012;49.794;9.722;2022-11-20T05:13:35;35.03;;;22.80;;
3995;SDS011;2012;49.794;9.722;2022-11-20T05:16:03;32.90;;;21.77;;
3995;SDS011;2012;49.794;9.722;2022-11-20T05:18:35;30.83;;;22.53;;
3995;SDS011;2012;49.794;9.722;2022-11-20T05:21:02;33.77;;;23.23;;
3995;SDS011;2012;49.794;9.722;2022-11-20T05:23:30;31.77;;;21.63;;
3995;SDS011;2012;49.794;9.722;2022-11-20T05:25:58;32.93;;;21.87;;
3995;SDS011;2012;49.794;9.722;2022-11-20T05:28:27;31.43;;;22.23;;
3995;SDS011;2012;49.794;9.722;2022-11-20T05:30:54;27.77;;;20.40;;
3995;SDS011;2012;49.794;9.722;2022-11-20T05:33:21;34.57;;;22.70;;
3995;SDS011;2012;49.794;9.722;2022-11-20T05:35:48;30.83;;;20.40;;
3995;SDS011;2012;49.794;9.722;2022-11-20T05:38:15;29.57;;;20.80;;
3995;SDS011;2012;49.794;9.722;2022-11-20T05:40:42;31.83;;;22.00;;
3995;SDS011;2012;49.794;9.722;2022-11-20T05:43:09;32.07;;;22.00;;
3995;SDS011;2012;49.794;9.722;2022-11-20T05:45:35;31.33;;;20.27;;
3995;SDS011;2012;49.794;9.722;2022-11-20T05:48:02;31.00;;;20.20;;
3995;SDS011;2012;49.794;9.722;2022-11-20T05:50:29;30.00;;;20.90;;
3995;SDS011;2012;49.794;9.722;2022-11-20T05:52:59;31.70;;;20.57;;
3995;SDS011;2012;49.794;9.722;2022-11-20T05:55:27;30.47;;;20.87;;
3995;SDS011;2012;49.794;9.722;2022-11-20T05:57:54;33.30;;;20.27;;
3995;SDS011;2012;49.794;9.722;2022-11-20T06:00:21;30.07;;;20.63;;
3995;SDS011;2012;49.794;9.722;2022-11-20T06:02:48;32.83;;;21.90;;
3995;SDS011;2012;49.794;9.722;2022-11-20T06:05:15;34.03;;;22.10;;
3995;SDS011;2012;49.794;9.722;2022-11-20T06:07:42;34.63;;;22.23;;
3995;SDS011;2012;49.794;9.722;2022-11-20T06:10:09;34.10;;;22.07;;
3995;SDS011;2012;49.794;9.722;2022-11-20T06:12:36;32.13;;;21.33;;
3995;SDS011;2012;49.794;9.722;2022-11-20T06:15:04;33.43;;;21.77;;
3995;SDS011;2012;49.794;9.722;2022-11-20T06:17:31;32.27;;;21.60;;
3995;SDS011;2012;49.794;9.722;2022-11-20T06:19:58;33.23;;;22.67;;
3995;SDS011;2012;49.794;9.722;2022-11-20T06:22:25;39.90;;;24.37;;
3995;SDS011;2012;49.794;9.722;2022-11-20T06:24:51;37.70;;;23.63;;
3995;SDS011;2012;49.794;9.722;2022-11-20T06:27:18;37.07;;;21.93;;
3995;SDS011;2012;49.794;9.722;2022-11-20T06:29:45;35.90;;;23.00;;
3995;SDS011;2012;49.794;9.722;2022-11-20T06:32:11;36.43;;;23.77;;
3995;SDS011;2012;49.794;9.722;2022-11-20T06:34:38;40.37;;;25.00;;
3995;SDS011;2012;49.794;9.722;2022-11-20T06:37:05;38.97;;;25.27;;
3995;SDS011;2012;49.794;9.722;2022-11-20T06:39:31;37.80;;;24.43;;
3995;SDS011;2012;49.794;9.722;2022-11-20T06:41:58;39.20;;;24.50;;
3995;SDS011;2012;49.794;9.722;2022-11-20T06:44:25;38.40;;;24.13;;
3995;SDS011;2012;49.794;9.722;2022-11-20T06:46:52;38.47;;;25.30;;
3995;SDS011;2012;49.794;9.722;2022-11-20T06:49:18;38.13;;;24.23;;
3995;SDS011;2012;49.794;9.722;2022-11-20T06:51:46;35.73;;;23.20;;
3995;SDS011;2012;49.794;9.722;2022-11-20T06:54:13;40.20;;;23.93;;
3995;SDS011;2012;49.794;9.722;2022-11-20T06:56:39;41.17;;;25.60;;
3995;SDS011;2012;49.794;9.722;2022-11-20T06:59:06;42.30;;;24.50;;
3995;SDS011;2012;49.794;9.722;2022-11-20T07:01:34;41.67;;;23.90;;
3995;SDS011;2012;49.794;9.722;2022-11-20T07:04:01;38.40;;;23.97;;
3995;SDS011;2012;49.794;9.722;2022-11-20T07:06:29;42.60;;;24.40;;
3995;SDS011;2012;49.794;9.722;2022-11-20T07:08:56;46.00;;;27.47;;
3995;SDS011;2012;49.794;9.722;2022-11-20T07:11:23;48.37;;;27.63;;
3995;SDS011;2012;49.794;9.722;2022-11-20T07:13:50;44.43;;;27.90;;
3995;SDS011;2012;49.794;9.722;2022-11-20T07:16:16;42.63;;;26.80;;
3995;SDS011;2012;49.794;9.722;2022-11-20T07:18:43;41.87;;;26.13;;
3995;SDS011;2012;49.794;9.722;2022-11-20T07:21:16;43.93;;;23.97;;
3995;SDS011;2012;49.794;9.722;2022-11-20T07:23:43;44.87;;;26.30;;
3995;SDS011;2012;49.794;9.722;2022-11-20T07:26:10;43.20;;;25.13;;
3995;SDS011;2012;49.794;9.722;2022-11-20T07:28:37;45.10;;;27.00;;
3995;SDS011;2012;49.794;9.722;2022-11-20T07:31:04;47.57;;;27.40;;
3995;SDS011;2012;49.794;9.722;2022-11-20T07:33:33;46.23;;;28.60;;
3995;SDS011;2012;49.794;9.722;2022-11-20T07:36:00;46.60;;;26.93;;
3995;SDS011;2012;49.794;9.722;2022-11-20T07:38:27;43.23;;;25.10;;
3995;SDS011;2012;49.794;9.722;2022-11-20T07:40:54;43.80;;;26.40;;
3995;SDS011;2012;49.794;9.722;2022-11-20T07:43:22;48.13;;;26.40;;
3995;SDS011;2012;49.794;9.722;2022-11-20T07:45:49;45.10;;;25.73;;
3995;SDS011;2012;49.794;9.722;2022-11-20T07:48:16;47.60;;;27.30;;
3995;SDS011;2012;49.794;9.722;2022-11-20T07:50:43;43.97;;;25.90;;
3995;SDS011;2012;49.794;9.722;2022-11-20T07:53:10;45.43;;;26.97;;
3995;SDS011;2012;49.794;9.722;2022-11-20T07:55:38;42.50;;;25.47;;
3995;SDS011;2012;49.794;9.722;2022-11-20T07:58:05;43.47;;;24.97;;
3995;SDS011;2012;49.794;9.722;2022-11-20T08:00:32;40.17;;;24.17;;
3995;SDS011;2012;49.794;9.722;2022-11-20T08:02:59;52.67;;;30.27;;
3995;SDS011;2012;49.794;9.722;2022-11-20T08:05:30;46.87;;;27.50;;
3995;SDS011;2012;49.794;9.722;2022-11-20T08:07:56;41.80;;;25.80;;
3995;SDS011;2012;49.794;9.722;2022-11-20T08:10:23;42.70;;;23.90;;
3995;SDS011;2012;49.794;9.722;2022-11-20T08:12:51;49.90;;;26.63;;
3995;SDS011;2012;49.794;9.722;2022-11-20T08:15:38;46.77;;;26.83;;
3995;SDS011;2012;49.794;9.722;2022-11-20T08:18:11;41.17;;;24.47;;
3995;SDS011;2012;49.794;9.722;2022-11-20T08:20:57;41.77;;;24.10;;
3995;SDS011;2012;49.794;9.722;2022-11-20T08:23:23;44.43;;;25.87;;
3995;SDS011;2012;49.794;9.722;2022-11-20T08:25:50;52.63;;;29.77;;
3995;SDS011;2012;49.794;9.722;2022-11-20T08:28:17;45.40;;;26.63;;
3995;SDS011;2012;49.794;9.722;2022-11-20T08:30:47;53.07;;;28.90;;
3995;SDS011;2012;49.794;9.722;2022-11-20T08:33:15;46.00;;;26.60;;
3995;SDS011;2012;49.794;9.722;2022-11-20T08:35:43;42.33;;;25.37;;
3995;SDS011;2012;49.794;9.722;2022-11-20T08:38:10;40.30;;;24.57;;
3995;SDS011;2012;49.794;9.722;2022-11-20T08:40:36;40.70;;;23.50;;
3995;SDS011;2012;49.794;9.722;2022-11-20T08:43:03;42.70;;;23.33;;
3995;SDS011;2012;49.794;9.722;2022-11-20T08:45:30;38.07;;;22.43;;
3995;SDS011;2012;49.794;9.722;2022-11-20T08:48:00;40.77;;;22.90;;
3995;SDS011;2012;49.794;9.722;2022-11-20T08:50:28;38.50;;;21.13;;
3995;SDS011;2012;49.794;9.722;2022-11-20T08:53:01;39.90;;;22.30;;
3995;SDS011;2012;49.794;9.722;2022-11-20T08:55:32;34.60;;;21.30;;
3995;SDS011;2012;49.794;9.722;2022-11-20T08:58:04;36.83;;;21.73;;
3995;SDS011;2012;49.794;9.722;2022-11-20T09:00:32;38.00;;;21.70;;
3995;SDS011;2012;49.794;9.722;2022-11-20T09:03:00;35.43;;;22.00;;
3995;SDS011;2012;49.794;9.722;2022-11-20T09:05:27;40.33;;;23.80;;
3995;SDS011;2012;49.794;9.722;2022-11-20T09:07:57;41.30;;;22.83;;
3995;SDS011;2012;49.794;9.722;2022-11-20T09:10:25;36.00;;;22.17;;
3995;SDS011;2012;49.794;9.722;2022-11-20T09:12:53;37.80;;;22.23;;
3995;SDS011;2012;49.794;9.722;2022-11-20T09:15:21;41.93;;;26.00;;
3995;SDS011;2012;49.794;9.722;2022-11-20T09:17:56;44.13;;;24.23;;
3995;SDS011;2012;49.794;9.722;2022-11-20T09:20:30;35.00;;;21.60;;
3995;SDS011;2012;49.794;9.722;2022-11-20T09:22:57;38.17;;;22.03;;
3995;SDS011;2012;49.794;9.722;2022-11-20T09:25:24;38.07;;;22.00;;
3995;SDS011;2012;49.794;9.722;2022-11-20T09:27:57;31.07;;;18.20;;
3995;SDS011;2012;49.794;9.722;2022-11-20T09:30:24;37.93;;;21.57;;
3995;SDS011;2012;49.794;9.722;2022-11-20T09:32:52;42.00;;;21.00;;
3995;SDS011;2012;49.794;9.722;2022-11-20T09:35:19;39.47;;;20.50;;
3995;SDS011;2012;49.794;9.722;2022-11-20T09:37:46;30.83;;;19.43;;
3995;SDS011;2012;49.794;9.722;2022-11-20T09:40:23;28.83;;;16.90;;
3995;SDS011;2012;49.794;9.722;2022-11-20T09:45:50;30.10;;;18.23;;
3995;SDS011;2012;49.794;9.722;2022-11-20T09:51:39;28.43;;;17.30;;
3995;SDS011;2012;49.794;9.722;2022-11-20T09:54:21;27.87;;;17.40;;
3995;SDS011;2012;49.794;9.722;2022-11-20T09:57:00;29.87;;;18.03;;
3995;SDS011;2012;49.794;9.722;2022-11-20T09:59:37;29.50;;;18.13;;
3995;SDS011;2012;49.794;9.722;2022-11-20T10:02:25;80.10;;;19.70;;
3995;SDS011;2012;49.794;9.722;2022-11-20T10:08:09;28.70;;;17.47;;
3995;SDS011;2012;49.794;9.722;2022-11-20T10:19:40;49.23;;;21.33;;
3995;SDS011;2012;49.794;9.722;2022-11-20T10:22:20;28.83;;;14.67;;
3995;SDS011;2012;49.794;9.722;2022-11-20T10:30:37;22.80;;;12.07;;
3995;SDS011;2012;49.794;9.722;2022-11-20T10:33:26;16.93;;;10.43;;
3995;SDS011;2012;49.794;9.722;2022-11-20T10:36:28;17.30;;;10.93;;
3995;SDS011;2012;49.794;9.722;2022-11-20T10:41:51;16.70;;;13.30;;
3995;SDS011;2012;49.794;9.722;2022-11-20T10:44:21;23.90;;;11.83;;
3995;SDS011;2012;49.794;9.722;2022-11-20T10:47:17;17.47;;;10.97;;
3995;SDS011;2012;49.794;9.722;2022-11-20T10:49:45;15.00;;;10.23;;
3995;SDS011;2012;49.794;9.722;2022-11-20T10:52:28;15.57;;;10.80;;
3995;SDS011;2012;49.794;9.722;2022-11-20T10:55:06;16.40;;;10.70;;
3995;SDS011;2012;49.794;9.722;2022-11-20T11:00:34;20.70;;;10.63;;
3995;SDS011;2012;49.794;9.722;2022-11-20T11:03:01;17.77;;;11.97;;
3995;SDS011;2012;49.794;9.722;2022-11-20T11:05:33;18.70;;;11.53;;
3995;SDS011;2012;49.794;9.722;2022-11-20T11:08:07;20.17;;;12.07;;
3995;SDS011;2012;49.794;9.722;2022-11-20T11:13:28;17.50;;;11.23;;
3995;SDS011;2012;49.794;9.722;2022-11-20T11:15:56;18.10;;;12.20;;
3995;SDS011;2012;49.794;9.722;2022-11-20T11:18:27;18.07;;;11.47;;
3995;SDS011;2012;49.794;9.722;2022-11-20T11:20:59;15.50;;;10.80;;
3995;SDS011;2012;49.794;9.722;2022-11-20T11:23:41;16.80;;;10.90;;
3995;SDS011;2012;49.794;9.722;2022-11-20T11:26:19;20.03;;;12.57;;
3995;SDS011;2012;49.794;9.722;2022-11-20T11:28:54;18.30;;;12.10;;
3995;SDS011;2012;49.794;9.722;2022-11-20T11:31:31;15.77;;;10.60;;
3995;SDS011;2012;49.794;9.722;2022-11-20T11:34:06;19.83;;;12.27;;
3995;SDS011;2012;49.794;9.722;2022-11-20T11:36:37;17.47;;;11.60;;
3995;SDS011;2012;49.794;9.722;2022-11-20T11:39:05;23.43;;;12.67;;
3995;SDS011;2012;49.794;9.722;2022-11-20T11:41:37;15.53;;;10.93;;
3995;SDS011;2012;49.794;9.722;2022-11-20T11:47:11;19.23;;;10.80;;
3995;SDS011;2012;49.794;9.722;2022-11-20T11:52:41;19.27;;;11.30;;
3995;SDS011;2012;49.794;9.722;2022-11-20T12:03:52;16.03;;;10.33;;
3995;SDS011;2012;49.794;9.722;2022-11-20T12:06:47;17.70;;;11.13;;
3995;SDS011;2012;49.794;9.722;2022-11-20T12:09:17;18.50;;;11.70;;
3995;SDS011;2012;49.794;9.722;2022-11-20T12:11:47;18.63;;;12.50;;
3995;SDS011;2012;49.794;9.722;2022-11-20T12:14:22;16.90;;;11.00;;
3995;SDS011;2012;49.794;9.722;2022-11-20T12:17:03;20.47;;;11.97;;
3995;SDS011;2012;49.794;9.722;2022-11-20T12:19:31;16.70;;;10.67;;
3995;SDS011;2012;49.794;9.722;2022-11-20T12:22:10;16.10;;;11.13;;
3995;SDS011;2012;49.794;9.722;2022-11-20T12:25:08;14.97;;;10.23;;
3995;SDS011;2012;49.794;9.722;2022-11-20T12:30:16;18.87;;;13.07;;
3995;SDS011;2012;49.794;9.722;2022-11-20T12:41:02;15.97;;;10.50;;
3995;SDS011;2012;49.794;9.722;2022-11-20T12:44:19;16.90;;;10.90;;
3995;SDS011;2012;49.794;9.722;2022-11-20T12:59:09;13.37;;;10.00;;
3995;SDS011;2012;49.794;9.722;2022-11-20T13:07:03;14.53;;;11.00;;
3995;SDS011;2012;49.794;9.722;2022-11-20T13:09:34;14.30;;;9.90;;
3995;SDS011;2012;49.794;9.722;2022-11-20T13:12:29;18.30;;;12.07;;
3995;SDS011;2012;49.794;9.722;2022-11-20T13:15:07;17.27;;;10.77;;
3995;SDS011;2012;49.794;9.722;2022-11-20T13:17:56;16.80;;;11.80;;
3995;SDS011;2012;49.794;9.722;2022-11-20T13:20:25;14.60;;;10.73;;
3995;SDS011;2012;49.794;9.722;2022-11-20T13:22:53;25.27;;;16.60;;
3995;SDS011;2012;49.794;9.722;2022-11-20T13:25:27;15.23;;;9.60;;
3995;SDS011;2012;49.794;9.722;2022-11-20T13:27:56;13.50;;;8.87;;
3995;SDS011;2012;49.794;9.722;2022-11-20T13:30:25;14.53;;;10.00;;
3995;SDS011;2012;49.794;9.722;2022-11-20T13:32:53;13.60;;;9.37;;
3995;SDS011;2012;49.794;9.722;2022-11-20T13:35:24;14.67;;;10.20;;
3995;SDS011;2012;49.794;9.722;2022-11-20T13:38:14;13.17;;;8.87;;
3995;SDS011;2012;49.794;9.722;2022-11-20T13:40:51;14.50;;;10.57;;
3995;SDS011;2012;49.794;9.722;2022-11-20T13:43:22;13.40;;;9.00;;
3995;SDS011;2012;49.794;9.722;2022-11-20T13:45:56;11.40;;;8.43;;
3995;SDS011;2012;49.794;9.722;2022-11-20T13:48:32;16.83;;;11.20;;
3995;SDS011;2012;49.794;9.722;2022-11-20T13:51:09;11.60;;;8.40;;
3995;SDS011;2012;49.794;9.722;2022-11-20T13:56:39;11.90;;;8.63;;
3995;SDS011;2012;49.794;9.722;2022-11-20T14:02:14;40.67;;;10.67;;
3995;SDS011;2012;49.794;9.722;2022-11-20T14:04:44;32.57;;;10.20;;
3995;SDS011;2012;49.794;9.722;2022-11-20T14:07:15;15.43;;;8.80;;
3995;SDS011;2012;49.794;9.722;2022-11-20T14:09:54;28.70;;;9.17;;
3995;SDS011;2012;49.794;9.722;2022-11-20T14:12:27;64.60;;;11.03;;
3995;SDS011;2012;49.794;9.722;2022-11-20T14:14:56;43.53;;;11.97;;
3995;SDS011;2012;49.794;9.722;2022-11-20T14:20:02;37.77;;;9.60;;
3995;SDS011;2012;49.794;9.722;2022-11-20T14:22:31;40.10;;;9.40;;
3995;SDS011;2012;49.794;9.722;2022-11-20T14:25:05;27.93;;;8.57;;
3995;SDS011;2012;49.794;9.722;2022-11-20T14:27:39;35.83;;;9.13;;
3995;SDS011;2012;49.794;9.722;2022-11-20T14:30:14;32.47;;;9.00;;
3995;SDS011;2012;49.794;9.722;2022-11-20T14:32:44;17.63;;;8.20;;
3995;SDS011;2012;49.794;9.722;2022-11-20T14:35:46;17.00;;;9.10;;
3995;SDS011;2012;49.794;9.722;2022-11-20T14:38:12;28.53;;;9.67;;
3995;SDS011;2012;49.794;9.722;2022-11-20T14:40:41;19.17;;;8.77;;
3995;SDS011;2012;49.794;9.722;2022-11-20T14:46:02;24.77;;;14.77;;
3995;SDS011;2012;49.794;9.722;2022-11-20T14:48:37;18.67;;;9.73;;
3995;SDS011;2012;49.794;9.722;2022-11-20T14:51:34;12.20;;;8.77;;
3995;SDS011;2012;49.794;9.722;2022-11-20T14:54:08;17.97;;;10.13;;
3995;SDS011;2012;49.794;9.722;2022-11-20T14:57:01;14.30;;;9.33;;
3995;SDS011;2012;49.794;9.722;2022-11-20T14:59:31;18.53;;;9.30;;
3995;SDS011;2012;49.794;9.722;2022-11-20T15:02:01;16.17;;;9.90;;
3995;SDS011;2012;49.794;9.722;2022-11-20T15:04:28;20.07;;;8.70;;
3995;SDS011;2012;49.794;9.722;2022-11-20T15:06:57;15.03;;;8.47;;
3995;SDS011;2012;49.794;9.722;2022-11-20T15:09:25;13.30;;;8.97;;
3995;SDS011;2012;49.794;9.722;2022-11-20T15:11:55;15.40;;;9.53;;
3995;SDS011;2012;49.794;9.722;2022-11-20T15:14:24;12.47;;;8.60;;
3995;SDS011;2012;49.794;9.722;2022-11-20T15:16:52;13.87;;;8.20;;
3995;SDS011;2012;49.794;9.722;2022-11-20T15:19:20;12.80;;;7.10;;
3995;SDS011;2012;49.794;9.722;2022-11-20T15:21:52;17.00;;;9.20;;
3995;SDS011;2012;49.794;9.722;2022-11-20T15:24:19;14.67;;;8.97;;
3995;SDS011;2012;49.794;9.722;2022-11-20T15:26:47;13.40;;;9.07;;
3995;SDS011;2012;49.794;9.722;2022-11-20T15:29:14;14.03;;;8.53;;
3995;SDS011;2012;49.794;9.722;2022-11-20T15:31:45;16.00;;;10.00;;
3995;SDS011;2012;49.794;9.722;2022-11-20T15:34:12;12.30;;;8.60;;
3995;SDS011;2012;49.794;9.722;2022-11-20T15:36:40;13.77;;;9.67;;
3995;SDS011;2012;49.794;9.722;2022-11-20T15:39:08;14.57;;;7.80;;
3995;SDS011;2012;49.794;9.722;2022-11-20T15:41:35;12.00;;;7.90;;
3995;SDS011;2012;49.794;9.722;2022-11-20T15:44:03;14.23;;;7.87;;
3995;SDS011;2012;49.794;9.722;2022-11-20T15:46:31;10.40;;;7.87;;
3995;SDS011;2012;49.794;9.722;2022-11-20T15:49:03;13.83;;;8.37;;
3995;SDS011;2012;49.794;9.722;2022-11-20T15:51:32;12.43;;;9.97;;
3995;SDS011;2012;49.794;9.722;2022-11-20T15:54:05;18.60;;;11.90;;
3995;SDS011;2012;49.794;9.722;2022-11-20T15:56:39;15.33;;;9.23;;
3995;SDS011;2012;49.794;9.722;2022-11-20T15:59:06;10.43;;;8.37;;
3995;SDS011;2012;49.794;9.722;2022-11-20T16:01:33;11.57;;;7.03;;
3995;SDS011;2012;49.794;9.722;2022-11-20T16:04:01;10.97;;;6.87;;
3995;SDS011;2012;49.794;9.722;2022-11-20T16:06:28;9.63;;;7.07;;
3995;SDS011;2012;49.794;9.722;2022-11-20T16:08:54;12.87;;;6.80;;
3995;SDS011;2012;49.794;9.722;2022-11-20T16:11:21;10.50;;;7.37;;
3995;SDS011;2012;49.794;9.722;2022-11-20T16:13:48;9.70;;;7.23;;
3995;SDS011;2012;49.794;9.722;2022-11-20T16:16:34;9.27;;;7.03;;
3995;SDS011;2012;49.794;9.722;2022-11-20T16:19:03;11.10;;;7.00;;
3995;SDS011;2012;49.794;9.722;2022-11-20T16:21:30;9.50;;;8.00;;
3995;SDS011;2012;49.794;9.722;2022-11-20T16:24:02;17.27;;;7.60;;
3995;SDS011;2012;49.794;9.722;2022-11-20T16:26:30;11.10;;;7.37;;
3995;SDS011;2012;49.794;9.722;2022-11-20T16:28:58;10.57;;;6.80;;
3995;SDS011;2012;49.794;9.722;2022-11-20T16:31:25;10.20;;;7.23;;
3995;SDS011;2012;49.794;9.722;2022-11-20T16:33:53;11.10;;;7.30;;
3995;SDS011;2012;49.794;9.722;2022-11-20T16:36:23;9.73;;;6.63;;
3995;SDS011;2012;49.794;9.722;2022-11-20T16:38:52;10.83;;;6.67;;
3995;SDS011;2012;49.794;9.722;2022-11-20T16:41:21;10.57;;;6.97;;
3995;SDS011;2012;49.794;9.722;2022-11-20T16:43:52;9.40;;;6.43;;
3995;SDS011;2012;49.794;9.722;2022-11-20T16:46:24;8.97;;;6.50;;
3995;SDS011;2012;49.794;9.722;2022-11-20T16:48:53;8.60;;;6.60;;
3995;SDS011;2012;49.794;9.722;2022-11-20T16:51:28;12.03;;;6.07;;